sensor_id;sensor_type;location;lat;lon;timestamp;pressure;altitude;pressure_sealevel;temperature;humidity
66164;BME280;52962;51.088;3.096;2023-08-08T00:02:05;101362.97;;;16.28;100.00
66164;BME280;52962;51.088;3.096;2023-08-08T00:04:33;101365.59;;;16.22;100.00
66164;BME280;52962;51.088;3.096;2023-08-08T00:07:02;101360.25;;;16.18;100.00
66164;BME280;52962;51.088;3.096;2023-08-08T00:09:31;101373.53;;;16.19;100.00
66164;BME280;52962;51.088;3.096;2023-08-08T00:12:00;101373.53;;;16.19;100.00
66164;BME280;52962;51.088;3.096;2023-08-08T00:14:28;101366.47;;;16.21;100.00
66164;BME280;52962;51.088;3.096;2023-08-08T00:16:56;101369.09;;;16.17;100.00
66164;BME280;52962;51.088;3.096;2023-08-08T00:19:24;101365.53;;;16.13;100.00
66164;BME280;52962;51.088;3.096;2023-08-08T00:21:53;101377.03;;;16.12;100.00
66164;BME280;52962;51.088;3.096;2023-08-08T00:24:21;101377.06;;;16.15;100.00
66164;BME280;52962;51.088;3.096;2023-08-08T00:26:49;101366.41;;;16.11;100.00
66164;BME280;52962;51.088;3.096;2023-08-08T00:29:19;101374.41;;;16.14;100.00
66164;BME280;52962;51.088;3.096;2023-08-08T00:31:47;101376.16;;;16.12;100.00
66164;BME280;52962;51.088;3.096;2023-08-08T00:34:15;101362.84;;;16.07;100.00
66164;BME280;52962;51.088;3.096;2023-08-08T00:36:44;101365.47;;;16.02;100.00
66164;BME280;52962;51.088;3.096;2023-08-08T00:39:12;101365.47;;;16.02;100.00
66164;BME280;52962;51.088;3.096;2023-08-08T00:41:40;101359.25;;;15.99;100.00
66164;BME280;52962;51.088;3.096;2023-08-08T00:44:08;101362.50;;;15.61;100.00
66164;BME280;52962;51.088;3.096;2023-08-08T00:46:37;101360.13;;;15.98;100.00
66164;BME280;52962;51.088;3.096;2023-08-08T00:49:06;101360.16;;;16.01;100.00
66164;BME280;52962;51.088;3.096;2023-08-08T00:51:35;101365.47;;;16.02;100.00
66164;BME280;52962;51.088;3.096;2023-08-08T00:54:04;101367.22;;;16.02;100.00
66164;BME280;52962;51.088;3.096;2023-08-08T00:56:33;101351.28;;;15.99;100.00
66164;BME280;52962;51.088;3.096;2023-08-08T00:59:03;101348.59;;;15.94;100.00
66164;BME280;52962;51.088;3.096;2023-08-08T01:01:32;101348.59;;;15.93;100.00
66164;BME280;52962;51.088;3.096;2023-08-08T01:04:01;101347.78;;;16.08;100.00
66164;BME280;52962;51.088;3.096;2023-08-08T01:06:37;101349.56;;;16.10;100.00
66164;BME280;52962;51.088;3.096;2023-08-08T01:09:10;101345.16;;;16.11;100.00
66164;BME280;52962;51.088;3.096;2023-08-08T01:11:41;101346.94;;;16.13;100.00
66164;BME280;52962;51.088;3.096;2023-08-08T01:14:10;101341.59;;;16.10;100.00
66164;BME280;52962;51.088;3.096;2023-08-08T01:16:40;101338.03;;;16.08;100.00
66164;BME280;52962;51.088;3.096;2023-08-08T01:19:14;101339.78;;;16.00;100.00
66164;BME280;52962;51.088;3.096;2023-08-08T01:21:48;101339.78;;;16.00;100.00
66164;BME280;52962;51.088;3.096;2023-08-08T01:24:23;101343.28;;;15.96;100.00
66164;BME280;52962;51.088;3.096;2023-08-08T01:26:53;101343.28;;;15.93;100.00
66164;BME280;52962;51.088;3.096;2023-08-08T01:29:21;101339.75;;;15.97;100.00
66164;BME280;52962;51.088;3.096;2023-08-08T01:31:50;101350.41;;;16.00;100.00
66164;BME280;52962;51.088;3.096;2023-08-08T01:34:18;101347.72;;;15.98;100.00
66164;BME280;52962;51.088;3.096;2023-08-08T01:36:49;101348.59;;;15.96;100.00
66164;BME280;52962;51.088;3.096;2023-08-08T01:39:26;101349.47;;;15.93;100.00
66164;BME280;52962;51.088;3.096;2023-08-08T01:41:55;101336.19;;;15.92;100.00
66164;BME280;52962;51.088;3.096;2023-08-08T01:44:25;101331.75;;;15.91;100.00
66164;BME280;52962;51.088;3.096;2023-08-08T01:46:55;101336.13;;;15.86;100.00
66164;BME280;52962;51.088;3.096;2023-08-08T01:49:23;101333.47;;;15.83;100.00
66164;BME280;52962;51.088;3.096;2023-08-08T01:51:51;101327.25;;;15.81;100.00
66164;BME280;52962;51.088;3.096;2023-08-08T01:54:19;101337.88;;;15.79;100.00
66164;BME280;52962;51.088;3.096;2023-08-08T01:56:49;101328.09;;;15.77;100.00
66164;BME280;52962;51.088;3.096;2023-08-08T01:59:17;101326.31;;;15.76;100.00
66164;BME280;52962;51.088;3.096;2023-08-08T02:01:45;101321.00;;;15.73;100.00
66164;BME280;52962;51.088;3.096;2023-08-08T02:04:13;101326.28;;;15.68;100.00
66164;BME280;52962;51.088;3.096;2023-08-08T02:06:41;101325.38;;;15.66;100.00
66164;BME280;52962;51.088;3.096;2023-08-08T02:09:09;101319.16;;;15.64;100.00
66164;BME280;52962;51.088;3.096;2023-08-08T02:11:38;101321.81;;;15.64;100.00
66164;BME280;52962;51.088;3.096;2023-08-08T02:14:07;101320.06;;;15.64;100.00
66164;BME280;52962;51.088;3.096;2023-08-08T02:16:35;101332.44;;;15.65;100.00
66164;BME280;52962;51.088;3.096;2023-08-08T02:19:04;101326.22;;;15.60;100.00
66164;BME280;52962;51.088;3.096;2023-08-08T02:21:32;101323.56;;;15.60;100.00
66164;BME280;52962;51.088;3.096;2023-08-08T02:24:00;101327.13;;;15.59;100.00
66164;BME280;52962;51.088;3.096;2023-08-08T02:26:28;101326.25;;;15.59;100.00
66164;BME280;52962;51.088;3.096;2023-08-08T02:28:56;101316.34;;;15.43;100.00
66164;BME280;52962;51.088;3.096;2023-08-08T02:31:26;101311.16;;;15.56;100.00
66164;BME280;52962;51.088;3.096;2023-08-08T02:33:54;101315.59;;;15.57;100.00
66164;BME280;52962;51.088;3.096;2023-08-08T02:36:23;101319.09;;;15.55;100.00
66164;BME280;52962;51.088;3.096;2023-08-08T02:38:51;101313.75;;;15.49;100.00
66164;BME280;52962;51.088;3.096;2023-08-08T02:41:21;101307.31;;;15.21;100.00
66164;BME280;52962;51.088;3.096;2023-08-08T02:43:50;101307.31;;;15.22;100.00
66164;BME280;52962;51.088;3.096;2023-08-08T02:46:18;101312.66;;;15.24;100.00
66164;BME280;52962;51.088;3.096;2023-08-08T02:48:48;101307.34;;;15.24;100.00
66164;BME280;52962;51.088;3.096;2023-08-08T02:51:17;101311.75;;;15.23;100.00
66164;BME280;52962;51.088;3.096;2023-08-08T02:53:45;101308.25;;;15.26;100.00
66164;BME280;52962;51.088;3.096;2023-08-08T02:56:13;101316.19;;;15.26;100.00
66164;BME280;52962;51.088;3.096;2023-08-08T02:58:42;101313.50;;;15.21;100.00
66164;BME280;52962;51.088;3.096;2023-08-08T03:01:11;101310.81;;;15.17;100.00
66164;BME280;52962;51.088;3.096;2023-08-08T03:03:40;101310.81;;;15.17;100.00
66164;BME280;52962;51.088;3.096;2023-08-08T03:06:10;101309.94;;;15.19;100.00
66164;BME280;52962;51.088;3.096;2023-08-08T03:08:39;101311.69;;;15.14;100.00
66164;BME280;52962;51.088;3.096;2023-08-08T03:11:08;101305.47;;;15.14;100.00
66164;BME280;52962;51.088;3.096;2023-08-08T03:13:37;101305.47;;;15.14;100.00
66164;BME280;52962;51.088;3.096;2023-08-08T03:16:05;101305.50;;;15.17;100.00
66164;BME280;52962;51.088;3.096;2023-08-08T03:18:34;101303.72;;;15.16;100.00
66164;BME280;52962;51.088;3.096;2023-08-08T03:21:02;101302.00;;;15.19;100.00
66164;BME280;52962;51.088;3.096;2023-08-08T03:23:34;101305.53;;;15.21;100.00
66164;BME280;52962;51.088;3.096;2023-08-08T03:26:03;101301.16;;;15.23;100.00
66164;BME280;52962;51.088;3.096;2023-08-08T03:28:31;101298.47;;;15.22;100.00
66164;BME280;52962;51.088;3.096;2023-08-08T03:30:59;101296.69;;;15.21;100.00
66164;BME280;52962;51.088;3.096;2023-08-08T03:33:28;101296.69;;;15.21;100.00
66164;BME280;52962;51.088;3.096;2023-08-08T03:35:57;101299.31;;;15.18;100.00
66164;BME280;52962;51.088;3.096;2023-08-08T03:38:25;101297.56;;;15.18;100.00
66164;BME280;52962;51.088;3.096;2023-08-08T03:40:55;101305.53;;;15.20;100.00
66164;BME280;52962;51.088;3.096;2023-08-08T03:43:23;101294.91;;;15.18;100.00
66164;BME280;52962;51.088;3.096;2023-08-08T03:45:51;101303.75;;;15.19;100.00
66164;BME280;52962;51.088;3.096;2023-08-08T03:48:20;101292.25;;;15.18;100.00
66164;BME280;52962;51.088;3.096;2023-08-08T03:50:48;101294.94;;;15.20;100.00
66164;BME280;52962;51.088;3.096;2023-08-08T03:53:16;101294.03;;;15.21;100.00
66164;BME280;52962;51.088;3.096;2023-08-08T03:55:44;101288.75;;;15.21;100.00
66164;BME280;52962;51.088;3.096;2023-08-08T03:58:17;101284.28;;;15.17;100.00
66164;BME280;52962;51.088;3.096;2023-08-08T04:00:45;101294.91;;;15.17;100.00
66164;BME280;52962;51.088;3.096;2023-08-08T04:03:15;101290.41;;;15.10;100.00
66164;BME280;52962;51.088;3.096;2023-08-08T04:05:44;101290.44;;;15.11;100.00
66164;BME280;52962;51.088;3.096;2023-08-08T04:08:14;101288.63;;;15.09;100.00
66164;BME280;52962;51.088;3.096;2023-08-08T04:10:43;101293.03;;;15.05;100.00
66164;BME280;52962;51.088;3.096;2023-08-08T04:13:14;101294.78;;;15.04;100.00
66164;BME280;52962;51.088;3.096;2023-08-08T04:15:44;101295.63;;;15.02;100.00
66164;BME280;52962;51.088;3.096;2023-08-08T04:18:12;101289.50;;;15.06;100.00
66164;BME280;52962;51.088;3.096;2023-08-08T04:20:40;101311.59;;;15.05;100.00
66164;BME280;52962;51.088;3.096;2023-08-08T04:23:08;101305.41;;;15.04;100.00
66164;BME280;52962;51.088;3.096;2023-08-08T04:25:36;101301.91;;;15.09;100.00
66164;BME280;52962;51.088;3.096;2023-08-08T04:28:05;101294.84;;;15.11;100.00
66164;BME280;52962;51.088;3.096;2023-08-08T04:30:35;101296.59;;;15.09;100.00
66164;BME280;52962;51.088;3.096;2023-08-08T04:33:05;101298.34;;;15.07;100.00
66164;BME280;52962;51.088;3.096;2023-08-08T04:35:33;101296.56;;;15.05;100.00
66164;BME280;52962;51.088;3.096;2023-08-08T04:38:01;101300.97;;;15.05;100.00
66164;BME280;52962;51.088;3.096;2023-08-08T04:40:29;101302.75;;;15.06;100.00
66164;BME280;52962;51.088;3.096;2023-08-08T04:42:58;101309.88;;;15.10;100.00
66164;BME280;52962;51.088;3.096;2023-08-08T04:45:26;101309.91;;;15.13;100.00
66164;BME280;52962;51.088;3.096;2023-08-08T04:47:57;101307.28;;;15.18;100.00
66164;BME280;52962;51.088;3.096;2023-08-08T04:50:27;101310.84;;;15.20;100.00
66164;BME280;52962;51.088;3.096;2023-08-08T04:52:55;101323.22;;;15.21;100.00
66164;BME280;52962;51.088;3.096;2023-08-08T04:55:23;101316.19;;;15.23;100.00
66164;BME280;52962;51.088;3.096;2023-08-08T04:57:54;101314.44;;;15.25;100.00
66164;BME280;52962;51.088;3.096;2023-08-08T05:00:26;101313.53;;;15.24;100.00
66164;BME280;52962;51.088;3.096;2023-08-08T05:02:54;101308.22;;;15.24;100.00
66164;BME280;52962;51.088;3.096;2023-08-08T05:05:23;101308.19;;;15.21;100.00
66164;BME280;52962;51.088;3.096;2023-08-08T05:07:52;101303.75;;;15.19;100.00
66164;BME280;52962;51.088;3.096;2023-08-08T05:10:21;101303.75;;;15.19;100.00
66164;BME280;52962;51.088;3.096;2023-08-08T05:12:49;101305.53;;;15.20;100.00
66164;BME280;52962;51.088;3.096;2023-08-08T05:15:17;101309.06;;;15.19;100.00
66164;BME280;52962;51.088;3.096;2023-08-08T05:17:46;101311.72;;;15.19;100.00
66164;BME280;52962;51.088;3.096;2023-08-08T05:20:14;101308.19;;;15.18;100.00
66164;BME280;52962;51.088;3.096;2023-08-08T05:22:42;101313.47;;;15.18;100.00
66164;BME280;52962;51.088;3.096;2023-08-08T05:25:12;101305.50;;;15.17;100.00
66164;BME280;52962;51.088;3.096;2023-08-08T05:27:40;101305.53;;;15.20;100.00
66164;BME280;52962;51.088;3.096;2023-08-08T05:30:09;101316.16;;;15.20;100.00
66164;BME280;52962;51.088;3.096;2023-08-08T05:32:37;101313.50;;;15.21;100.00
66164;BME280;52962;51.088;3.096;2023-08-08T05:35:05;101312.66;;;15.24;100.00
66164;BME280;52962;51.088;3.096;2023-08-08T05:37:34;101313.56;;;15.29;100.00
66164;BME280;52962;51.088;3.096;2023-08-08T05:40:02;101305.63;;;15.32;100.00
66164;BME280;52962;51.088;3.096;2023-08-08T05:42:34;101308.31;;;15.33;100.00
66164;BME280;52962;51.088;3.096;2023-08-08T05:45:03;101309.22;;;15.37;100.00
66164;BME280;52962;51.088;3.096;2023-08-08T05:47:32;101310.16;;;15.44;100.00
66164;BME280;52962;51.088;3.096;2023-08-08T05:50:00;101308.41;;;15.47;100.00
66164;BME280;52962;51.088;3.096;2023-08-08T05:52:29;101312.00;;;15.54;100.00
66164;BME280;52962;51.088;3.096;2023-08-08T05:54:57;101317.41;;;15.60;100.00
66164;BME280;52962;51.088;3.096;2023-08-08T05:57:26;101321.84;;;15.68;100.00
66164;BME280;52962;51.088;3.096;2023-08-08T05:59:56;101316.56;;;15.72;100.00
66164;BME280;52962;51.088;3.096;2023-08-08T06:02:38;101318.38;;;15.76;100.00
66164;BME280;52962;51.088;3.096;2023-08-08T06:05:06;101305.97;;;15.75;100.00
66164;BME280;52962;51.088;3.096;2023-08-08T06:07:35;101310.44;;;15.80;100.00
66164;BME280;52962;51.088;3.096;2023-08-08T06:10:03;101313.13;;;15.85;100.00
66164;BME280;52962;51.088;3.096;2023-08-08T06:12:32;101306.09;;;15.93;100.00
66164;BME280;52962;51.088;3.096;2023-08-08T06:15:01;101315.84;;;15.97;100.00
66164;BME280;52962;51.088;3.096;2023-08-08T06:17:30;101316.75;;;16.02;100.00
66164;BME280;52962;51.088;3.096;2023-08-08T06:19:58;101313.22;;;16.05;100.00
66164;BME280;52962;51.088;3.096;2023-08-08T06:22:26;101319.44;;;16.08;100.00
66164;BME280;52962;51.088;3.096;2023-08-08T06:24:54;101312.38;;;16.10;100.00
66164;BME280;52962;51.088;3.096;2023-08-08T06:27:23;101311.50;;;16.14;100.00
66164;BME280;52962;51.088;3.096;2023-08-08T06:29:51;101317.75;;;16.19;100.00
66164;BME280;52962;51.088;3.096;2023-08-08T06:32:20;101309.81;;;16.28;100.00
66164;BME280;52962;51.088;3.096;2023-08-08T06:34:49;101315.19;;;16.39;100.00
66164;BME280;52962;51.088;3.096;2023-08-08T06:37:17;101306.34;;;16.48;100.00
66164;BME280;52962;51.088;3.096;2023-08-08T06:39:45;101302.81;;;16.52;100.00
66164;BME280;52962;51.088;3.096;2023-08-08T06:42:13;101301.06;;;16.57;100.00
66164;BME280;52962;51.088;3.096;2023-08-08T06:44:53;101297.53;;;16.67;100.00
66164;BME280;52962;51.088;3.096;2023-08-08T06:47:23;101298.47;;;16.80;100.00
66164;BME280;52962;51.088;3.096;2023-08-08T06:49:51;101299.38;;;16.91;100.00
66164;BME280;52962;51.088;3.096;2023-08-08T06:52:20;101301.16;;;16.99;100.00
66164;BME280;52962;51.088;3.096;2023-08-08T06:54:48;101291.41;;;17.02;100.00
66164;BME280;52962;51.088;3.096;2023-08-08T06:57:16;101293.19;;;17.04;100.00
66164;BME280;52962;51.088;3.096;2023-08-08T06:59:44;101302.94;;;17.00;100.00
66164;BME280;52962;51.088;3.096;2023-08-08T07:02:18;101308.25;;;17.00;100.00
66164;BME280;52962;51.088;3.096;2023-08-08T07:04:47;101311.81;;;16.96;100.00
66164;BME280;52962;51.088;3.096;2023-08-08T07:07:15;101305.59;;;16.94;100.00
66164;BME280;52962;51.088;3.096;2023-08-08T07:09:44;101300.25;;;16.93;100.00
66164;BME280;52962;51.088;3.096;2023-08-08T07:12:12;101301.16;;;16.96;100.00
66164;BME280;52962;51.088;3.096;2023-08-08T07:14:40;101294.06;;;16.98;100.00
66164;BME280;52962;51.088;3.096;2023-08-08T07:17:09;101302.94;;;17.00;100.00
66164;BME280;52962;51.088;3.096;2023-08-08T07:19:37;101299.38;;;16.98;100.00
66164;BME280;52962;51.088;3.096;2023-08-08T07:22:06;101293.19;;;16.98;100.00
66164;BME280;52962;51.088;3.096;2023-08-08T07:24:35;101298.50;;;16.96;100.00
66164;BME280;52962;51.088;3.096;2023-08-08T07:27:05;101298.50;;;16.99;100.00
66164;BME280;52962;51.088;3.096;2023-08-08T07:29:34;101293.19;;;17.06;100.00
66164;BME280;52962;51.088;3.096;2023-08-08T07:32:03;101298.50;;;17.15;100.00
66164;BME280;52962;51.088;3.096;2023-08-08T07:34:31;101302.06;;;17.27;100.00
66164;BME280;52962;51.088;3.096;2023-08-08T07:37:00;101301.19;;;17.24;100.00
66164;BME280;52962;51.088;3.096;2023-08-08T07:39:29;101303.84;;;17.27;100.00
66164;BME280;52962;51.088;3.096;2023-08-08T07:41:58;101308.28;;;17.26;100.00
66164;BME280;52962;51.088;3.096;2023-08-08T07:44:26;101304.75;;;17.32;100.00
66164;BME280;52962;51.088;3.096;2023-08-08T07:46:54;101304.75;;;17.38;100.00
66164;BME280;52962;51.088;3.096;2023-08-08T07:49:22;101301.19;;;17.45;100.00
66164;BME280;52962;51.088;3.096;2023-08-08T07:51:51;101304.72;;;17.50;100.00
66164;BME280;52962;51.088;3.096;2023-08-08T07:54:18;101302.06;;;17.58;100.00
66164;BME280;52962;51.088;3.096;2023-08-08T07:56:48;101294.97;;;17.61;100.00
66164;BME280;52962;51.088;3.096;2023-08-08T07:59:16;101289.66;;;17.68;100.00
66164;BME280;52962;51.088;3.096;2023-08-08T08:01:44;101287.84;;;17.77;100.00
66164;BME280;52962;51.088;3.096;2023-08-08T08:04:13;101279.84;;;17.82;100.00
66164;BME280;52962;51.088;3.096;2023-08-08T08:06:42;101288.66;;;17.99;100.00
66164;BME280;52962;51.088;3.096;2023-08-08T08:09:11;101293.94;;;18.17;100.00
66164;BME280;52962;51.088;3.096;2023-08-08T08:11:39;101295.72;;;18.18;100.00
66164;BME280;52962;51.088;3.096;2023-08-08T08:14:09;101300.13;;;18.24;100.00
66164;BME280;52962;51.088;3.096;2023-08-08T08:16:37;101295.72;;;18.18;100.00
66164;BME280;52962;51.088;3.096;2023-08-08T08:19:05;101283.25;;;18.20;100.00
66164;BME280;52962;51.088;3.096;2023-08-08T08:21:35;101284.19;;;18.13;100.00
66164;BME280;52962;51.088;3.096;2023-08-08T08:24:04;101281.47;;;18.25;100.00
66164;BME280;52962;51.088;3.096;2023-08-08T08:26:32;101277.88;;;18.36;100.00
66164;BME280;52962;51.088;3.096;2023-08-08T08:29:00;101281.38;;;18.48;100.00
66164;BME280;52962;51.088;3.096;2023-08-08T08:31:30;101276.00;;;18.62;100.00
66164;BME280;52962;51.088;3.096;2023-08-08T08:33:58;101283.06;;;18.71;100.00
66164;BME280;52962;51.088;3.096;2023-08-08T08:36:26;101286.56;;;18.74;100.00
66164;BME280;52962;51.088;3.096;2023-08-08T08:38:54;101288.31;;;18.75;100.00
66164;BME280;52962;51.088;3.096;2023-08-08T08:41:25;101277.72;;;18.69;100.00
66164;BME280;52962;51.088;3.096;2023-08-08T08:43:54;101282.97;;;18.77;100.00
66164;BME280;52962;51.088;3.096;2023-08-08T08:46:25;101293.47;;;19.03;100.00
66164;BME280;52962;51.088;3.096;2023-08-08T08:48:58;101291.56;;;19.21;100.00
66164;BME280;52962;51.088;3.096;2023-08-08T08:51:27;101297.72;;;19.30;100.00
66164;BME280;52962;51.088;3.096;2023-08-08T08:53:56;101292.47;;;19.19;100.00
66164;BME280;52962;51.088;3.096;2023-08-08T08:56:26;101289.06;;;18.99;100.00
66164;BME280;52962;51.088;3.096;2023-08-08T08:58:55;101303.31;;;18.96;100.00
66164;BME280;52962;51.088;3.096;2023-08-08T09:01:24;101305.16;;;18.86;100.00
66164;BME280;52962;51.088;3.096;2023-08-08T09:03:56;101304.34;;;18.75;100.00
66164;BME280;52962;51.088;3.096;2023-08-08T09:06:26;101309.72;;;18.71;100.00
66164;BME280;52962;51.088;3.096;2023-08-08T09:08:55;101308.00;;;18.62;100.00
66164;BME280;52962;51.088;3.096;2023-08-08T09:11:43;101312.44;;;18.58;100.00
66164;BME280;52962;51.088;3.096;2023-08-08T09:14:16;101312.50;;;18.43;100.00
66164;BME280;52962;51.088;3.096;2023-08-08T09:16:45;101306.25;;;18.49;100.00
66164;BME280;52962;51.088;3.096;2023-08-08T09:19:16;101302.69;;;18.53;100.00
66164;BME280;52962;51.088;3.096;2023-08-08T09:21:45;101304.41;;;18.60;100.00
66164;BME280;52962;51.088;3.096;2023-08-08T09:24:13;101309.72;;;18.71;100.00
66164;BME280;52962;51.088;3.096;2023-08-08T09:26:42;101320.28;;;18.86;100.00
66164;BME280;52962;51.088;3.096;2023-08-08T09:29:12;101311.31;;;18.98;100.00
66164;BME280;52962;51.088;3.096;2023-08-08T09:31:42;101309.41;;;19.15;100.00
66164;BME280;52962;51.088;3.096;2023-08-08T09:34:10;101314.63;;;19.30;100.00
66164;BME280;52962;51.088;3.096;2023-08-08T09:36:40;101312.03;;;19.21;100.00
66164;BME280;52962;51.088;3.096;2023-08-08T09:39:08;101311.13;;;19.23;100.00
66164;BME280;52962;51.088;3.096;2023-08-08T09:41:38;101314.81;;;19.07;100.00
66164;BME280;52962;51.088;3.096;2023-08-08T09:44:08;101312.97;;;19.14;100.00
66164;BME280;52962;51.088;3.096;2023-08-08T09:46:36;101319.16;;;19.19;100.00
66164;BME280;52962;51.088;3.096;2023-08-08T09:49:06;101319.19;;;19.17;100.00
66164;BME280;52962;51.088;3.096;2023-08-08T09:51:34;101316.47;;;19.25;100.00
66164;BME280;52962;51.088;3.096;2023-08-08T09:54:04;101315.44;;;19.41;100.00
66164;BME280;52962;51.088;3.096;2023-08-08T09:56:34;101313.53;;;19.58;100.00
66164;BME280;52962;51.088;3.096;2023-08-08T09:59:02;101311.59;;;19.74;100.00
66164;BME280;52962;51.088;3.096;2023-08-08T10:01:33;101305.22;;;19.86;100.00
66164;BME280;52962;51.088;3.096;2023-08-08T10:04:03;101305.00;;;20.07;100.00
66164;BME280;52962;51.088;3.096;2023-08-08T10:06:31;101300.41;;;20.17;100.00
66164;BME280;52962;51.088;3.096;2023-08-08T10:09:01;101301.28;;;20.20;100.00
66164;BME280;52962;51.088;3.096;2023-08-08T10:11:32;101309.16;;;20.33;100.00
66164;BME280;52962;51.088;3.096;2023-08-08T10:14:03;101293.03;;;20.42;100.00
66164;BME280;52962;51.088;3.096;2023-08-08T10:16:32;101285.03;;;20.39;100.00
66164;BME280;52962;51.088;3.096;2023-08-08T10:19:03;101292.16;;;20.37;100.00
66164;BME280;52962;51.088;3.096;2023-08-08T10:21:33;101299.31;;;20.35;100.00
66164;BME280;52962;51.088;3.096;2023-08-08T10:24:04;101294.88;;;20.32;100.00
66164;BME280;52962;51.088;3.096;2023-08-08T10:29:33;101297.69;;;20.21;100.00
66164;BME280;52962;51.088;3.096;2023-08-08T10:32:03;101296.91;;;20.13;100.00
66164;BME280;52962;51.088;3.096;2023-08-08T10:34:38;101301.25;;;20.23;100.00
66164;BME280;52962;51.088;3.096;2023-08-08T10:37:09;101288.13;;;20.02;100.00
66164;BME280;52962;51.088;3.096;2023-08-08T10:39:50;101288.03;;;20.08;100.00
66164;BME280;52962;51.088;3.096;2023-08-08T10:42:19;101282.72;;;20.07;100.00
66164;BME280;52962;51.088;3.096;2023-08-08T10:44:52;101294.41;;;19.98;100.00
66164;BME280;52962;51.088;3.096;2023-08-08T10:47:22;101298.81;;;20.02;100.00
66164;BME280;52962;51.088;3.096;2023-08-08T10:49:59;101286.28;;;20.07;100.00
66164;BME280;52962;51.088;3.096;2023-08-08T10:52:29;101296.00;;;20.14;100.00
66164;BME280;52962;51.088;3.096;2023-08-08T10:54:57;101292.41;;;20.15;100.00
66164;BME280;52962;51.088;3.096;2023-08-08T10:57:27;101286.06;;;20.24;100.00
66164;BME280;52962;51.088;3.096;2023-08-08T11:00:16;101282.50;;;20.23;100.00
66164;BME280;52962;51.088;3.096;2023-08-08T11:02:45;101287.81;;;20.28;100.00
66164;BME280;52962;51.088;3.096;2023-08-08T11:05:14;101285.16;;;20.27;100.00
66164;BME280;52962;51.088;3.096;2023-08-08T11:07:42;101294.03;;;20.30;100.00
66164;BME280;52962;51.088;3.096;2023-08-08T11:10:11;101288.78;;;20.22;100.00
66164;BME280;52962;51.088;3.096;2023-08-08T11:12:39;101293.31;;;20.16;100.00
66164;BME280;52962;51.088;3.096;2023-08-08T11:15:09;101292.47;;;20.12;100.00
66164;BME280;52962;51.088;3.096;2023-08-08T11:17:37;101293.31;;;20.16;100.00
66164;BME280;52962;51.088;3.096;2023-08-08T11:20:07;101286.78;;;20.41;100.00
66164;BME280;52962;51.088;3.096;2023-08-08T11:22:35;101278.50;;;20.60;100.00
66164;BME280;52962;51.088;3.096;2023-08-08T11:25:04;101278.28;;;20.76;100.00
66164;BME280;52962;51.088;3.096;2023-08-08T11:27:34;101271.91;;;20.82;100.00
66164;BME280;52962;51.088;3.096;2023-08-08T11:30:06;101274.72;;;20.76;100.00
66164;BME280;52962;51.088;3.096;2023-08-08T11:32:38;101276.50;;;20.75;100.00
66164;BME280;52962;51.088;3.096;2023-08-08T11:35:06;101286.28;;;20.78;100.00
66164;BME280;52962;51.088;3.096;2023-08-08T11:37:35;101278.28;;;20.76;100.00
66164;BME280;52962;51.088;3.096;2023-08-08T11:40:06;101268.59;;;20.68;100.00
66164;BME280;52962;51.088;3.096;2023-08-08T11:42:35;101263.06;;;20.78;100.00
66164;BME280;52962;51.088;3.096;2023-08-08T11:45:04;101261.22;;;20.80;100.00
66164;BME280;52962;51.088;3.096;2023-08-08T11:47:33;101272.78;;;20.82;100.00
66164;BME280;52962;51.088;3.096;2023-08-08T11:50:05;101276.50;;;20.75;100.00
66164;BME280;52962;51.088;3.096;2023-08-08T11:52:35;101272.16;;;20.68;100.00
66164;BME280;52962;51.088;3.096;2023-08-08T11:55:05;101272.00;;;20.77;100.00
66164;BME280;52962;51.088;3.096;2023-08-08T11:57:35;101260.72;;;20.55;100.00
66164;BME280;52962;51.088;3.096;2023-08-08T12:00:05;101257.13;;;20.58;100.00
66164;BME280;52962;51.088;3.096;2023-08-08T12:02:40;101262.72;;;20.40;100.00
66164;BME280;52962;51.088;3.096;2023-08-08T12:05:12;101246.53;;;20.50;100.00
66164;BME280;52962;51.088;3.096;2023-08-08T12:07:44;101240.97;;;20.64;100.00
66164;BME280;52962;51.088;3.096;2023-08-08T12:10:14;101244.59;;;20.62;100.00
66164;BME280;52962;51.088;3.096;2023-08-08T12:12:43;101257.84;;;20.69;100.00
66164;BME280;52962;51.088;3.096;2023-08-08T12:15:12;101261.22;;;20.80;100.00
66164;BME280;52962;51.088;3.096;2023-08-08T12:17:43;101251.47;;;20.78;100.00
66164;BME280;52962;51.088;3.096;2023-08-08T12:20:14;101241.91;;;20.62;100.00
66164;BME280;52962;51.088;3.096;2023-08-08T12:22:43;101237.28;;;20.73;100.00
66164;BME280;52962;51.088;3.096;2023-08-08T12:25:11;101223.81;;;20.79;100.00
66164;BME280;52962;51.088;3.096;2023-08-08T12:27:40;101226.22;;;20.93;100.00
66164;BME280;52962;51.088;3.096;2023-08-08T12:30:09;101237.88;;;20.90;100.00
66164;BME280;52962;51.088;3.096;2023-08-08T12:32:38;101239.97;;;20.71;100.00
66164;BME280;52962;51.088;3.096;2023-08-08T12:35:07;101246.22;;;20.72;100.00
66164;BME280;52962;51.088;3.096;2023-08-08T12:37:37;101252.63;;;20.62;100.00
66164;BME280;52962;51.088;3.096;2023-08-08T12:40:06;101258.03;;;20.57;100.00
66164;BME280;52962;51.088;3.096;2023-08-08T12:42:35;101253.09;;;20.23;100.00
66164;BME280;52962;51.088;3.096;2023-08-08T12:45:04;101247.75;;;20.23;100.00
66164;BME280;52962;51.088;3.096;2023-08-08T12:47:33;101254.09;;;20.15;100.00
66164;BME280;52962;51.088;3.096;2023-08-08T12:50:03;101253.22;;;20.14;100.00
66164;BME280;52962;51.088;3.096;2023-08-08T12:52:32;101255.09;;;20.06;100.00
66164;BME280;52962;51.088;3.096;2023-08-08T12:55:02;101258.59;;;20.11;100.00